sensor_id;sensor_type;location;lat;lon;timestamp;pressure;altitude;pressure_sealevel;temperature;humidity
40574;BME280;26283;49.020;8.644;2023-09-30T00:02:16;100119.88;;;23.30;55.11
40574;BME280;26283;49.020;8.644;2023-09-30T00:04:41;100120.16;;;23.29;55.12
40574;BME280;26283;49.020;8.644;2023-09-30T00:07:07;100128.41;;;23.29;55.13
40574;BME280;26283;49.020;8.644;2023-09-30T00:09:33;100126.75;;;23.28;55.14
40574;BME280;26283;49.020;8.644;2023-09-30T00:11:58;100127.03;;;23.26;55.15
40574;BME280;26283;49.020;8.644;2023-09-30T00:14:25;100125.09;;;23.27;55.16
40574;BME280;26283;49.020;8.644;2023-09-30T00:16:50;100130.59;;;23.27;55.16
40574;BME280;26283;49.020;8.644;2023-09-30T00:19:16;100126.22;;;23.25;55.18
40574;BME280;26283;49.020;8.644;2023-09-30T00:21:42;100132.53;;;23.26;55.18
40574;BME280;26283;49.020;8.644;2023-09-30T00:24:07;100130.06;;;23.24;55.20
40574;BME280;26283;49.020;8.644;2023-09-30T00:26:33;100126.50;;;23.24;55.21
40574;BME280;26283;49.020;8.644;2023-09-30T00:28:58;100124.84;;;23.23;55.21
40574;BME280;26283;49.020;8.644;2023-09-30T00:31:24;100126.75;;;23.22;55.22
40574;BME280;26283;49.020;8.644;2023-09-30T00:33:49;100132.28;;;23.22;55.22
40574;BME280;26283;49.020;8.644;2023-09-30T00:36:15;100134.19;;;23.22;55.24
40574;BME280;26283;49.020;8.644;2023-09-30T00:38:40;100133.38;;;23.21;55.24
40574;BME280;26283;49.020;8.644;2023-09-30T00:41:07;100133.38;;;23.21;55.25
40574;BME280;26283;49.020;8.644;2023-09-30T00:43:33;100131.72;;;23.20;55.27
40574;BME280;26283;49.020;8.644;2023-09-30T00:46:03;100136.41;;;23.20;55.27
40574;BME280;26283;49.020;8.644;2023-09-30T00:48:34;100143.00;;;23.19;55.30
40574;BME280;26283;49.020;8.644;2023-09-30T00:51:00;100139.44;;;23.18;55.29
40574;BME280;26283;49.020;8.644;2023-09-30T00:53:26;100149.59;;;23.18;55.30
40574;BME280;26283;49.020;8.644;2023-09-30T00:55:52;100150.44;;;23.18;55.32
40574;BME280;26283;49.020;8.644;2023-09-30T00:58:17;100151.53;;;23.17;55.32
40574;BME280;26283;49.020;8.644;2023-09-30T01:00:43;100151.84;;;23.16;55.33
40574;BME280;26283;49.020;8.644;2023-09-30T01:03:09;100157.34;;;23.16;55.32
40574;BME280;26283;49.020;8.644;2023-09-30T01:05:35;100152.66;;;23.16;55.36
40574;BME280;26283;49.020;8.644;2023-09-30T01:08:01;100145.50;;;23.15;55.36
40574;BME280;26283;49.020;8.644;2023-09-30T01:10:28;100148.25;;;23.15;55.37
40574;BME280;26283;49.020;8.644;2023-09-30T01:12:53;100150.19;;;23.15;55.38
40574;BME280;26283;49.020;8.644;2023-09-30T01:15:19;100140.28;;;23.14;55.39
40574;BME280;26283;49.020;8.644;2023-09-30T01:17:45;100144.97;;;23.13;55.39
40574;BME280;26283;49.020;8.644;2023-09-30T01:20:12;100146.06;;;23.12;55.41
40574;BME280;26283;49.020;8.644;2023-09-30T01:22:41;100135.06;;;23.12;55.42
40574;BME280;26283;49.020;8.644;2023-09-30T01:25:07;100139.75;;;23.12;55.42
40574;BME280;26283;49.020;8.644;2023-09-30T01:27:35;100144.41;;;23.11;55.43
40574;BME280;26283;49.020;8.644;2023-09-30T01:30:00;100149.09;;;23.11;55.44
40574;BME280;26283;49.020;8.644;2023-09-30T01:32:25;100147.44;;;23.10;55.45
40574;BME280;26283;49.020;8.644;2023-09-30T01:34:51;100138.38;;;23.09;55.45
40574;BME280;26283;49.020;8.644;2023-09-30T01:37:16;100141.13;;;23.09;55.45
40574;BME280;26283;49.020;8.644;2023-09-30T01:39:41;100137.56;;;23.09;55.46
40574;BME280;26283;49.020;8.644;2023-09-30T01:42:08;100136.72;;;23.08;55.47
40574;BME280;26283;49.020;8.644;2023-09-30T01:44:33;100140.56;;;23.07;55.46
40574;BME280;26283;49.020;8.644;2023-09-30T01:46:59;100143.31;;;23.07;55.47
40574;BME280;26283;49.020;8.644;2023-09-30T01:49:24;100143.31;;;23.07;55.48
40574;BME280;26283;49.020;8.644;2023-09-30T01:51:51;100140.84;;;23.06;55.50
40574;BME280;26283;49.020;8.644;2023-09-30T01:54:16;100147.19;;;23.06;55.51
40574;BME280;26283;49.020;8.644;2023-09-30T01:56:42;100145.53;;;23.05;55.50
40574;BME280;26283;49.020;8.644;2023-09-30T01:59:07;100150.22;;;23.05;55.50
40574;BME280;26283;49.020;8.644;2023-09-30T02:01:33;100152.94;;;23.05;55.51
40574;BME280;26283;49.020;8.644;2023-09-30T02:03:58;100148.56;;;23.04;55.51
40574;BME280;26283;49.020;8.644;2023-09-30T02:06:23;100163.13;;;23.04;55.52
40574;BME280;26283;49.020;8.644;2023-09-30T02:08:49;100163.41;;;23.03;55.52
40574;BME280;26283;49.020;8.644;2023-09-30T02:11:14;100172.47;;;23.03;55.54
40574;BME280;26283;49.020;8.644;2023-09-30T02:13:41;100166.16;;;23.03;55.55
40574;BME280;26283;49.020;8.644;2023-09-30T02:16:12;100175.78;;;23.00;55.55
40574;BME280;26283;49.020;8.644;2023-09-30T02:18:38;100169.19;;;23.01;55.58
40574;BME280;26283;49.020;8.644;2023-09-30T02:21:03;100171.09;;;23.01;55.57
40574;BME280;26283;49.020;8.644;2023-09-30T02:23:29;100168.63;;;22.99;55.57
40574;BME280;26283;49.020;8.644;2023-09-30T02:25:54;100163.97;;;23.00;55.60
40574;BME280;26283;49.020;8.644;2023-09-30T02:28:20;100172.47;;;22.98;55.60
40574;BME280;26283;49.020;8.644;2023-09-30T02:30:45;100174.69;;;22.96;55.61
40574;BME280;26283;49.020;8.644;2023-09-30T02:33:11;100172.75;;;22.97;55.61
40574;BME280;26283;49.020;8.644;2023-09-30T02:35:36;100171.94;;;22.96;55.62
40574;BME280;26283;49.020;8.644;2023-09-30T02:38:04;100167.53;;;22.95;55.63
40574;BME280;26283;49.020;8.644;2023-09-30T02:40:30;100161.25;;;22.95;55.64
40574;BME280;26283;49.020;8.644;2023-09-30T02:42:55;100153.28;;;22.93;55.67
40574;BME280;26283;49.020;8.644;2023-09-30T02:45:21;100143.09;;;22.94;55.67
40574;BME280;26283;49.020;8.644;2023-09-30T02:47:46;100148.59;;;22.94;55.67
40574;BME280;26283;49.020;8.644;2023-09-30T02:50:12;100147.78;;;22.93;55.67
40574;BME280;26283;49.020;8.644;2023-09-30T02:52:38;100156.31;;;22.92;55.69
40574;BME280;26283;49.020;8.644;2023-09-30T02:55:09;100160.16;;;22.90;55.71
40574;BME280;26283;49.020;8.644;2023-09-30T02:57:35;100162.91;;;22.90;55.71
40574;BME280;26283;49.020;8.644;2023-09-30T03:00:04;100170.31;;;22.90;55.73
40574;BME280;26283;49.020;8.644;2023-09-30T03:02:51;100163.19;;;22.89;55.73
40574;BME280;26283;49.020;8.644;2023-09-30T03:05:17;100161.25;;;22.89;55.73
40574;BME280;26283;49.020;8.644;2023-09-30T03:07:43;100160.69;;;22.87;55.75
40574;BME280;26283;49.020;8.644;2023-09-30T03:10:08;100167.84;;;22.88;55.77
40574;BME280;26283;49.020;8.644;2023-09-30T03:12:35;100171.69;;;22.87;55.78
40574;BME280;26283;49.020;8.644;2023-09-30T03:15:00;100165.38;;;22.87;55.80
40574;BME280;26283;49.020;8.644;2023-09-30T03:17:30;100174.72;;;22.86;55.80
40574;BME280;26283;49.020;8.644;2023-09-30T03:19:57;100180.22;;;22.86;55.80
40574;BME280;26283;49.020;8.644;2023-09-30T03:22:24;100185.72;;;22.86;55.81
40574;BME280;26283;49.020;8.644;2023-09-30T03:24:51;100188.72;;;22.84;55.82
40574;BME280;26283;49.020;8.644;2023-09-30T03:27:16;100181.59;;;22.83;55.82
40574;BME280;26283;49.020;8.644;2023-09-30T03:29:41;100176.91;;;22.84;55.83
40574;BME280;26283;49.020;8.644;2023-09-30T03:32:07;100172.53;;;22.83;55.84
40574;BME280;26283;49.020;8.644;2023-09-30T03:34:34;100162.63;;;22.82;55.85
40574;BME280;26283;49.020;8.644;2023-09-30T03:37:01;100155.47;;;22.81;55.86
40574;BME280;26283;49.020;8.644;2023-09-30T03:39:26;100159.88;;;22.82;55.87
40574;BME280;26283;49.020;8.644;2023-09-30T03:41:56;100158.22;;;22.81;55.87
40574;BME280;26283;49.020;8.644;2023-09-30T03:44:22;100161.25;;;22.79;55.91
40574;BME280;26283;49.020;8.644;2023-09-30T03:46:51;100164.81;;;22.80;55.90
40574;BME280;26283;49.020;8.644;2023-09-30T03:49:17;100164.00;;;22.79;55.91
40574;BME280;26283;49.020;8.644;2023-09-30T03:51:45;100169.78;;;22.78;55.90
40574;BME280;26283;49.020;8.644;2023-09-30T03:54:10;100167.03;;;22.78;55.91
40574;BME280;26283;49.020;8.644;2023-09-30T03:56:37;100178.03;;;22.78;55.91
40574;BME280;26283;49.020;8.644;2023-09-30T03:59:06;100181.84;;;22.77;55.92
40574;BME280;26283;49.020;8.644;2023-09-30T04:01:34;100181.00;;;22.76;55.93
40574;BME280;26283;49.020;8.644;2023-09-30T04:03:59;100153.53;;;22.76;55.85
40574;BME280;26283;49.020;8.644;2023-09-30T04:06:25;100150.81;;;22.81;55.00
40574;BME280;26283;49.020;8.644;2023-09-30T04:08:50;100152.72;;;22.81;54.74
40574;BME280;26283;49.020;8.644;2023-09-30T04:11:16;100162.91;;;22.80;54.65
40574;BME280;26283;49.020;8.644;2023-09-30T04:13:45;100168.66;;;22.79;54.59
40574;BME280;26283;49.020;8.644;2023-09-30T04:16:11;100163.69;;;22.76;54.54
40574;BME280;26283;49.020;8.644;2023-09-30T04:18:36;100165.63;;;22.75;54.54
40574;BME280;26283;49.020;8.644;2023-09-30T04:21:03;100163.16;;;22.74;54.56
40574;BME280;26283;49.020;8.644;2023-09-30T04:23:29;100173.63;;;22.72;54.57
40574;BME280;26283;49.020;8.644;2023-09-30T04:25:54;100171.16;;;22.70;54.56
40574;BME280;26283;49.020;8.644;2023-09-30T04:28:19;100168.66;;;22.69;54.58
40574;BME280;26283;49.020;8.644;2023-09-30T04:30:46;100170.88;;;22.67;54.59
40574;BME280;26283;49.020;8.644;2023-09-30T04:33:12;100177.47;;;22.66;54.58
40574;BME280;26283;49.020;8.644;2023-09-30T04:35:38;100182.13;;;22.65;54.54
40574;BME280;26283;49.020;8.644;2023-09-30T04:38:04;100175.81;;;22.65;54.51
40574;BME280;26283;49.020;8.644;2023-09-30T04:40:30;100180.75;;;22.63;54.50
40574;BME280;26283;49.020;8.644;2023-09-30T04:42:56;100185.69;;;22.61;54.51
40574;BME280;26283;49.020;8.644;2023-09-30T04:45:26;100182.94;;;22.61;54.51
40574;BME280;26283;49.020;8.644;2023-09-30T04:47:53;100176.09;;;22.58;54.56
40574;BME280;26283;49.020;8.644;2023-09-30T04:50:18;100183.50;;;22.57;54.47
40574;BME280;26283;49.020;8.644;2023-09-30T04:52:47;100180.75;;;22.57;54.46
40574;BME280;26283;49.020;8.644;2023-09-30T04:55:13;100187.34;;;22.56;54.43
40574;BME280;26283;49.020;8.644;2023-09-30T04:57:42;100196.69;;;22.55;54.44
40574;BME280;26283;49.020;8.644;2023-09-30T05:00:11;100197.78;;;22.54;54.44
40574;BME280;26283;49.020;8.644;2023-09-30T05:02:36;100186.53;;;22.51;54.42
40574;BME280;26283;49.020;8.644;2023-09-30T05:05:02;100183.81;;;22.51;54.34
40574;BME280;26283;49.020;8.644;2023-09-30T05:07:30;100181.06;;;22.51;54.32
40574;BME280;26283;49.020;8.644;2023-09-30T05:09:56;100168.69;;;22.48;54.32
40574;BME280;26283;49.020;8.644;2023-09-30T05:12:22;100182.16;;;22.50;54.31
40574;BME280;26283;49.020;8.644;2023-09-30T05:14:48;100181.88;;;22.46;54.27
40574;BME280;26283;49.020;8.644;2023-09-30T05:17:13;100188.75;;;22.49;54.25
40574;BME280;26283;49.020;8.644;2023-09-30T05:19:39;100193.69;;;22.47;54.23
40574;BME280;26283;49.020;8.644;2023-09-30T05:22:04;100192.84;;;22.46;54.16
40574;BME280;26283;49.020;8.644;2023-09-30T05:24:30;100190.09;;;22.46;54.14
40574;BME280;26283;49.020;8.644;2023-09-30T05:26:56;100192.31;;;22.44;54.16
40574;BME280;26283;49.020;8.644;2023-09-30T05:29:22;100191.75;;;22.42;54.16
40574;BME280;26283;49.020;8.644;2023-09-30T05:31:48;100202.72;;;22.42;54.14
40574;BME280;26283;49.020;8.644;2023-09-30T05:34:13;100191.47;;;22.39;54.12
40574;BME280;26283;49.020;8.644;2023-09-30T05:36:39;100199.16;;;22.42;54.08
40574;BME280;26283;49.020;8.644;2023-09-30T05:39:04;100200.81;;;22.38;54.05
40574;BME280;26283;49.020;8.644;2023-09-30T05:41:33;100209.59;;;22.40;54.06
40574;BME280;26283;49.020;8.644;2023-09-30T05:43:58;100203.81;;;22.36;54.15
40574;BME280;26283;49.020;8.644;2023-09-30T05:46:25;100208.50;;;22.36;54.04
40574;BME280;26283;49.020;8.644;2023-09-30T05:48:52;100204.66;;;22.37;54.06
40574;BME280;26283;49.020;8.644;2023-09-30T05:51:21;100197.22;;;22.37;54.08
40574;BME280;26283;49.020;8.644;2023-09-30T05:53:46;100204.91;;;22.35;54.14
40574;BME280;26283;49.020;8.644;2023-09-30T05:56:13;100217.81;;;22.35;54.07
40574;BME280;26283;49.020;8.644;2023-09-30T05:58:43;100227.16;;;22.34;54.13
40574;BME280;26283;49.020;8.644;2023-09-30T06:01:08;100237.31;;;22.33;54.12
40574;BME280;26283;49.020;8.644;2023-09-30T06:03:38;100239.50;;;22.31;54.08
40574;BME280;26283;49.020;8.644;2023-09-30T06:06:13;100238.41;;;22.32;54.11
40574;BME280;26283;49.020;8.644;2023-09-30T06:08:39;100236.25;;;22.29;54.28
40574;BME280;26283;49.020;8.644;2023-09-30T06:11:04;100245.31;;;22.30;54.13
40574;BME280;26283;49.020;8.644;2023-09-30T06:13:32;100236.78;;;22.26;54.17
40574;BME280;26283;49.020;8.644;2023-09-30T06:15:58;100240.63;;;22.25;54.19
40574;BME280;26283;49.020;8.644;2023-09-30T06:18:23;100243.09;;;22.27;54.18
40574;BME280;26283;49.020;8.644;2023-09-30T06:20:49;100246.66;;;22.22;54.21
40574;BME280;26283;49.020;8.644;2023-09-30T06:23:16;100245.56;;;22.23;54.25
40574;BME280;26283;49.020;8.644;2023-09-30T06:25:42;100248.31;;;22.23;54.29
40574;BME280;26283;49.020;8.644;2023-09-30T06:28:08;100240.59;;;22.20;54.34
40574;BME280;26283;49.020;8.644;2023-09-30T06:30:37;100246.66;;;22.22;54.38
40574;BME280;26283;49.020;8.644;2023-09-30T06:33:06;100249.41;;;22.22;54.46
40574;BME280;26283;49.020;8.644;2023-09-30T06:35:32;100248.84;;;22.20;54.54
40574;BME280;26283;49.020;8.644;2023-09-30T06:38:02;100260.91;;;22.19;54.60
40574;BME280;26283;49.020;8.644;2023-09-30T06:40:28;100258.16;;;22.19;54.66
40574;BME280;26283;49.020;8.644;2023-09-30T06:42:53;100257.34;;;22.18;54.77
40574;BME280;26283;49.020;8.644;2023-09-30T06:45:19;100262.00;;;22.18;54.82
40574;BME280;26283;49.020;8.644;2023-09-30T06:47:46;100256.78;;;22.16;54.88
40574;BME280;26283;49.020;8.644;2023-09-30T06:50:13;100258.72;;;22.16;54.90
40574;BME280;26283;49.020;8.644;2023-09-30T06:52:42;100247.16;;;22.14;54.91
40574;BME280;26283;49.020;8.644;2023-09-30T06:55:13;100246.06;;;22.15;54.92
40574;BME280;26283;49.020;8.644;2023-09-30T06:57:42;100252.09;;;22.12;54.94
40574;BME280;26283;49.020;8.644;2023-09-30T07:00:09;100254.56;;;22.13;55.07
40574;BME280;26283;49.020;8.644;2023-09-30T07:02:35;100263.09;;;22.12;55.05
40574;BME280;26283;49.020;8.644;2023-09-30T07:05:08;100262.00;;;22.13;55.14
40574;BME280;26283;49.020;8.644;2023-09-30T07:07:33;100271.59;;;22.10;55.24
40574;BME280;26283;49.020;8.644;2023-09-30T07:09:59;100280.09;;;22.09;55.23
40574;BME280;26283;49.020;8.644;2023-09-30T07:12:24;100281.75;;;22.10;55.29
40574;BME280;26283;49.020;8.644;2023-09-30T07:14:49;100283.66;;;22.09;55.35
40574;BME280;26283;49.020;8.644;2023-09-30T07:17:15;100283.66;;;22.09;55.39
40574;BME280;26283;49.020;8.644;2023-09-30T07:19:40;100290.28;;;22.08;55.41
40574;BME280;26283;49.020;8.644;2023-09-30T07:22:06;100284.78;;;22.08;55.43
40574;BME280;26283;49.020;8.644;2023-09-30T07:24:31;100275.72;;;22.08;55.46
40574;BME280;26283;49.020;8.644;2023-09-30T07:26:57;100281.47;;;22.06;55.51
40574;BME280;26283;49.020;8.644;2023-09-30T07:29:23;100281.47;;;22.06;55.53
40574;BME280;26283;49.020;8.644;2023-09-30T07:31:49;100289.72;;;22.06;55.51
40574;BME280;26283;49.020;8.644;2023-09-30T07:34:16;100303.72;;;22.05;55.78
40574;BME280;26283;49.020;8.644;2023-09-30T07:36:41;100313.59;;;22.06;55.97
40574;BME280;26283;49.020;8.644;2023-09-30T07:39:07;100319.09;;;22.06;56.06
40574;BME280;26283;49.020;8.644;2023-09-30T07:41:39;100325.37;;;22.01;56.13
40574;BME280;26283;49.020;8.644;2023-09-30T07:44:04;100333.91;;;22.05;56.20
40574;BME280;26283;49.020;8.644;2023-09-30T07:46:31;100334.47;;;22.07;56.20
40574;BME280;26283;49.020;8.644;2023-09-30T07:48:56;100330.06;;;22.06;56.24
40574;BME280;26283;49.020;8.644;2023-09-30T07:51:24;100324.56;;;22.06;56.24
40574;BME280;26283;49.020;8.644;2023-09-30T07:53:49;100315.25;;;22.07;56.26
40574;BME280;26283;49.020;8.644;2023-09-30T07:56:15;100313.31;;;22.07;56.27
40574;BME280;26283;49.020;8.644;2023-09-30T07:58:41;100312.50;;;22.07;56.29
40574;BME280;26283;49.020;8.644;2023-09-30T08:01:07;100309.47;;;22.03;56.31
40574;BME280;26283;49.020;8.644;2023-09-30T08:03:33;100309.75;;;22.07;56.32
40574;BME280;26283;49.020;8.644;2023-09-30T08:06:00;100307.00;;;22.07;56.33
40574;BME280;26283;49.020;8.644;2023-09-30T08:08:25;100312.50;;;22.07;56.36
40574;BME280;26283;49.020;8.644;2023-09-30T08:10:51;100307.00;;;22.02;56.36
40574;BME280;26283;49.020;8.644;2023-09-30T08:13:21;100322.37;;;22.08;56.38
40574;BME280;26283;49.020;8.644;2023-09-30T08:15:49;100316.06;;;22.07;56.40
40574;BME280;26283;49.020;8.644;2023-09-30T08:18:14;100303.19;;;22.08;56.41
40574;BME280;26283;49.020;8.644;2023-09-30T08:20:40;100318.53;;;22.09;56.41
40574;BME280;26283;49.020;8.644;2023-09-30T08:23:05;100322.37;;;22.08;56.41
40574;BME280;26283;49.020;8.644;2023-09-30T08:25:31;100319.34;;;22.09;56.41
40574;BME280;26283;49.020;8.644;2023-09-30T08:27:56;100302.06;;;22.09;56.41
40574;BME280;26283;49.020;8.644;2023-09-30T08:30:21;100297.38;;;22.09;56.40
40574;BME280;26283;49.020;8.644;2023-09-30T08:32:48;100297.38;;;22.09;56.40
40574;BME280;26283;49.020;8.644;2023-09-30T08:35:13;100301.78;;;22.10;56.41
40574;BME280;26283;49.020;8.644;2023-09-30T08:37:40;100307.00;;;22.12;56.41
40574;BME280;26283;49.020;8.644;2023-09-30T08:40:06;100298.22;;;22.10;56.41
40574;BME280;26283;49.020;8.644;2023-09-30T08:42:35;100299.03;;;22.10;56.41
40574;BME280;26283;49.020;8.644;2023-09-30T08:45:01;100307.00;;;22.12;56.40
40574;BME280;26283;49.020;8.644;2023-09-30T08:47:27;100297.94;;;22.11;56.39
40574;BME280;26283;49.020;8.644;2023-09-30T08:49:59;100298.50;;;22.13;56.38
40574;BME280;26283;49.020;8.644;2023-09-30T08:52:32;100311.97;;;22.15;56.38
40574;BME280;26283;49.020;8.644;2023-09-30T08:54:58;100311.97;;;22.15;56.37
40574;BME280;26283;49.020;8.644;2023-09-30T08:57:29;100314.44;;;22.16;56.36
40574;BME280;26283;49.020;8.644;2023-09-30T08:59:55;100317.19;;;22.16;56.35
40574;BME280;26283;49.020;8.644;2023-09-30T09:02:30;100321.59;;;22.17;56.33
40574;BME280;26283;49.020;8.644;2023-09-30T09:04:58;100336.13;;;22.18;56.33
40574;BME280;26283;49.020;8.644;2023-09-30T09:07:24;100328.47;;;22.20;56.32
40574;BME280;26283;49.020;8.644;2023-09-30T09:12:33;100323.81;;;22.20;56.30
40574;BME280;26283;49.020;8.644;2023-09-30T09:14:58;100319.97;;;22.21;56.27
40574;BME280;26283;49.020;8.644;2023-09-30T09:17:40;100329.84;;;22.22;56.26
40574;BME280;26283;49.020;8.644;2023-09-30T09:20:06;100325.19;;;22.23;56.25
40574;BME280;26283;49.020;8.644;2023-09-30T09:22:54;100320.53;;;22.23;56.22
40574;BME280;26283;49.020;8.644;2023-09-30T09:25:21;100321.34;;;22.24;56.21
40574;BME280;26283;49.020;8.644;2023-09-30T09:27:52;100315.59;;;22.26;56.19
40574;BME280;26283;49.020;8.644;2023-09-30T09:30:22;100312.56;;;22.27;56.16
40574;BME280;26283;49.020;8.644;2023-09-30T09:33:01;100310.66;;;22.28;56.13
40574;BME280;26283;49.020;8.644;2023-09-30T09:35:28;100312.00;;;22.30;56.10
40574;BME280;26283;49.020;8.644;2023-09-30T09:38:04;100309.25;;;22.30;56.06
40574;BME280;26283;49.020;8.644;2023-09-30T09:40:36;100309.81;;;22.32;56.05
40574;BME280;26283;49.020;8.644;2023-09-30T09:43:04;100303.22;;;22.33;56.02
40574;BME280;26283;49.020;8.644;2023-09-30T09:45:35;100311.19;;;22.35;55.99
40574;BME280;26283;49.020;8.644;2023-09-30T09:48:13;100308.19;;;22.36;55.96
40574;BME280;26283;49.020;8.644;2023-09-30T09:50:59;100307.91;;;22.38;55.92
40574;BME280;26283;49.020;8.644;2023-09-30T09:53:26;100299.94;;;22.36;55.90
40574;BME280;26283;49.020;8.644;2023-09-30T09:55:59;100306.00;;;22.38;55.88
40574;BME280;26283;49.020;8.644;2023-09-30T09:58:26;100307.38;;;22.41;55.86
40574;BME280;26283;49.020;8.644;2023-09-30T10:00:52;100296.94;;;22.43;55.82
40574;BME280;26283;49.020;8.644;2023-09-30T10:03:18;100287.59;;;22.44;55.79
40574;BME280;26283;49.020;8.644;2023-09-30T10:05:44;100295.59;;;22.45;55.78
40574;BME280;26283;49.020;8.644;2023-09-30T10:08:16;100301.91;;;22.46;55.75
40574;BME280;26283;49.020;8.644;2023-09-30T10:10:44;100289.53;;;22.48;55.71
40574;BME280;26283;49.020;8.644;2023-09-30T10:13:49;100279.94;;;22.46;55.68
40574;BME280;26283;49.020;8.644;2023-09-30T10:22:19;100278.03;;;22.51;55.72
40574;BME280;26283;49.020;8.644;2023-09-30T10:24:55;100279.62;;;22.52;55.74
40574;BME280;26283;49.020;8.644;2023-09-30T10:29:47;100289.53;;;22.53;55.72
40574;BME280;26283;49.020;8.644;2023-09-30T10:32:12;100276.38;;;22.50;55.71
40574;BME280;26283;49.020;8.644;2023-09-30T10:34:39;100277.19;;;22.56;55.69
40574;BME280;26283;49.020;8.644;2023-09-30T10:37:23;100286.81;;;22.58;55.65
40574;BME280;26283;49.020;8.644;2023-09-30T10:39:55;100279.38;;;22.59;55.60
40574;BME280;26283;49.020;8.644;2023-09-30T10:42:44;100286.53;;;22.60;55.57
40574;BME280;26283;49.020;8.644;2023-09-30T10:50:53;100270.31;;;22.64;55.41
40574;BME280;26283;49.020;8.644;2023-09-30T10:53:24;100259.34;;;22.64;55.38
40574;BME280;26283;49.020;8.644;2023-09-30T10:55:56;100253.56;;;22.65;55.35
40574;BME280;26283;49.020;8.644;2023-09-30T10:58:48;100254.41;;;22.66;55.29
40574;BME280;26283;49.020;8.644;2023-09-30T11:01:23;100253.28;;;22.67;55.24
40574;BME280;26283;49.020;8.644;2023-09-30T11:03:50;100258.53;;;22.68;55.21
40574;BME280;26283;49.020;8.644;2023-09-30T11:06:21;100253.56;;;22.70;55.20
40574;BME280;26283;49.020;8.644;2023-09-30T11:08:54;100249.72;;;22.71;55.16
40574;BME280;26283;49.020;8.644;2023-09-30T11:11:32;100256.06;;;22.72;55.09
40574;BME280;26283;49.020;8.644;2023-09-30T11:13:57;100253.81;;;22.74;55.04
40574;BME280;26283;49.020;8.644;2023-09-30T11:16:23;100253.81;;;22.74;55.02
40574;BME280;26283;49.020;8.644;2023-09-30T11:18:53;100256.31;;;22.75;55.00
40574;BME280;26283;49.020;8.644;2023-09-30T11:21:19;100254.97;;;22.78;54.95
40574;BME280;26283;49.020;8.644;2023-09-30T11:23:44;100252.22;;;22.78;54.92
40574;BME280;26283;49.020;8.644;2023-09-30T11:26:10;100247.28;;;22.80;54.88
40574;BME280;26283;49.020;8.644;2023-09-30T11:28:40;100251.66;;;22.81;54.83
40574;BME280;26283;49.020;8.644;2023-09-30T11:31:11;100252.50;;;22.81;54.80
40574;BME280;26283;49.020;8.644;2023-09-30T11:33:53;100249.47;;;22.83;54.76
40574;BME280;26283;49.020;8.644;2023-09-30T11:36:21;100242.88;;;22.84;54.71
40574;BME280;26283;49.020;8.644;2023-09-30T11:38:50;100251.94;;;22.84;54.70
40574;BME280;26283;49.020;8.644;2023-09-30T11:41:17;100246.19;;;22.86;54.68
40574;BME280;26283;49.020;8.644;2023-09-30T11:44:01;100250.56;;;22.87;54.66
40574;BME280;26283;49.020;8.644;2023-09-30T11:46:27;100255.81;;;22.88;54.63
40574;BME280;26283;49.020;8.644;2023-09-30T11:49:04;100254.69;;;22.89;54.60
40574;BME280;26283;49.020;8.644;2023-09-30T11:51:42;100250.84;;;22.90;54.57
40574;BME280;26283;49.020;8.644;2023-09-30T11:54:11;100249.75;;;22.92;54.54
40574;BME280;26283;49.020;8.644;2023-09-30T11:56:37;100251.69;;;22.91;54.54
40574;BME280;26283;49.020;8.644;2023-09-30T11:59:03;100249.47;;;22.93;54.51
40574;BME280;26283;49.020;8.644;2023-09-30T12:01:29;100249.22;;;22.95;54.48
40574;BME280;26283;49.020;8.644;2023-09-30T12:03:57;100240.13;;;22.94;54.46
40574;BME280;26283;49.020;8.644;2023-09-30T12:06:23;100253.31;;;22.97;54.45
40574;BME280;26283;49.020;8.644;2023-09-30T12:08:48;100245.06;;;22.97;54.41
40574;BME280;26283;49.020;8.644;2023-09-30T12:11:17;100251.09;;;22.99;54.40
40574;BME280;26283;49.020;8.644;2023-09-30T12:13:43;100244.50;;;23.00;54.37
40574;BME280;26283;49.020;8.644;2023-09-30T12:16:10;100244.22;;;23.02;54.34
40574;BME280;26283;49.020;8.644;2023-09-30T12:18:35;100242.31;;;23.02;54.33
40574;BME280;26283;49.020;8.644;2023-09-30T12:21:01;100245.88;;;23.03;54.30
40574;BME280;26283;49.020;8.644;2023-09-30T12:23:28;100238.47;;;23.03;54.29
40574;BME280;26283;49.020;8.644;2023-09-30T12:25:53;100242.84;;;23.04;54.26
40574;BME280;26283;49.020;8.644;2023-09-30T12:28:19;100236.25;;;23.05;54.24
40574;BME280;26283;49.020;8.644;2023-09-30T12:30:46;100237.09;;;23.06;54.21
40574;BME280;26283;49.020;8.644;2023-09-30T12:33:11;100234.06;;;23.07;54.19
40574;BME280;26283;49.020;8.644;2023-09-30T12:35:36;100232.97;;;23.08;54.18
40574;BME280;26283;49.020;8.644;2023-09-30T12:38:02;100235.72;;;23.08;54.16
40574;BME280;26283;49.020;8.644;2023-09-30T12:40:27;100241.75;;;23.10;54.14
40574;BME280;26283;49.020;8.644;2023-09-30T12:42:54;100237.09;;;23.11;54.13
40574;BME280;26283;49.020;8.644;2023-09-30T12:45:20;100236.81;;;23.12;54.11
40574;BME280;26283;49.020;8.644;2023-09-30T12:47:45;100237.63;;;23.13;54.09
40574;BME280;26283;49.020;8.644;2023-09-30T12:50:12;100241.22;;;23.13;54.07
40574;BME280;26283;49.020;8.644;2023-09-30T12:52:38;100242.03;;;23.14;54.04
40574;BME280;26283;49.020;8.644;2023-09-30T12:55:04;100239.00;;;23.15;54.00
40574;BME280;26283;49.020;8.644;2023-09-30T12:57:30;100228.00;;;23.15;53.97
40574;BME280;26283;49.020;8.644;2023-09-30T12:59:56;100218.66;;;23.16;53.97
40574;BME280;26283;49.020;8.644;2023-09-30T13:02:22;100212.03;;;23.17;53.96
40574;BME280;26283;49.020;8.644;2023-09-30T13:04:47;100207.34;;;23.18;53.93
40574;BME280;26283;49.020;8.644;2023-09-30T13:07:13;100191.66;;;23.18;53.94
40574;BME280;26283;49.020;8.644;2023-09-30T13:09:39;100192.22;;;23.20;53.94